Medicine Hat Airport
CYXH : now visible

Aeroporto :











RITROVATECI SU...

 
LOGIN :

Iscrizione | Disclaimer

   EN    FR    IT 

 









Sommario :    VFR   VFR Marginale   IFR   IFR Intensivo   IFR Molto Intensivo
Visibilità : 
Base nubi : 
>= 8 km
>= 3000ft
5 / 8 km
1000 / 3000 ft
1500m / 5 km
500 / 1000 ft
800 / 1500m
200 / 500 ft
< 800m
< 200 ft
Simboli :   Temporali  Nebbia  Neve Forte  Precipitazioni Forti  Vento > 20 kt






- Altitudine del aeroporto : 2352 ft
- Codice IATA : YXH


CYXH - Medicine Hat

ULTIMO METAR :
  • 261000Z AUTO 25013KT 9SM CLR M02/M07 A2978 RMK SLP114

METARs OBSOLETI :
  • 260900Z AUTO 22006KT 9SM OVC130 M03/M07 A2979 RMK SLP116
  • 260800Z AUTO 25007KT 9SM SCT180 SCT200 M06/M09 A2979 RMK SLP123
  • 260700Z AUTO 22012KT 9SM FEW190 M03/M07 A2980 RMK SLP124

TAF TAF CYXH
Valido dal 26 a 06 ore il 26 a 18 ore UTC


260538Z 2606/2618 20008KT P6SM SCT080
BECMG 2609/2611 30012G22KT
FM261500 28008KT P6SM BKN050 OVC080
BECMG 2616/2618 22010KT RMK FCST BASED ON AUTO OBS. NXT FCST BY 261200Z
FIR CZEG / America del Nord



MetMap, La meteo Aeronautica in un colpo d'occhio ! - Copyright ORBIFLY Dicembre 2007 - Disclaimer

ORBIFLY MET'MAP TEAM :

Programmazione e sviluppo : Alexandra Zaïnal
Concezione : Baudouin d'Aumeries
Aiuto per la programmazione : Marc-Olivier Méhu
Supporto tecnico e logistico : Manuel Goepfert
Aiuto per la traduzione : Arnaldo La Scala

Contatto : metmap@orbifly.com




FONTI E CREDITI :

   NOAA       Earth
Advisory